Airfield :
LOGIN :

Register | Disclaimer

   EN    FR    IT 

 










Legend :    VFR   Marginal VFR   IFR   Intensive IFR   Very Intensive IFR
Visi :
Ceiling :
>= 8 km
>= 3000ft
5 to 8 km
1000 to 3000 ft
1500m to 5 km
500 to 1000 ft
800 to 1500m
200 to 500 ft
< 800m
< 200 ft
Symbols :   Thunderstorms  Fog  Heavy snow  Heavy precipitations  Wind > 20 kt
SIGMETs :     Misc.  Thunderstorms  Icing  Turbulence  Mountain Waves  Volcanic Ashes






- Airport Elevation : 1742 ft
- IATA code : SOF


LBSF - Sofia Int.

CURRENT METAR :
  • 201930Z 12005KT 9999 FEW021 SCT066 11/09 Q1018 NOSIG

EXPIRED METARs :
  • 201900Z 09007KT 8000 SCT020 11/10 Q1018 NOSIG
  • 201830Z 10008KT 8000 SCT020 11/09 Q1018 NOSIG
  • 201800Z 09006KT 7000 SCT021 11/09 Q1017 NOSIG
  • 201730Z 12008KT 9999 SCT018 BKN022 11/09 Q1017 NOSIG
  • 201700Z 11007KT 7000 OVC022 11/10 Q1017 NOSIG

TAF COR TAF LBSF
Valid from the 20 at 18:00 until the 21 at 18:00 UTC


201729Z 2018/2118 11010KT 7000 SCT015 OVC030
TEMPO 2018/2021 VRB04KT 3000 RA OVC020
BECMG 2106/2108 SCT040



MET'MAP, your aeronautical weather chart ! - Copyright ORBIFLY December 2007 - Disclaimer

ORBIFLY MET'MAP TEAM :

Programming & Development : Alexandra Zaïnal
Concept & Development : Baudouin d'Aumeries
Co-Development & Prog : Marc-Olivier Méhu
Technical & hardware support : Manuel Goepfert

Contact : metmap@orbifly.com




SOURCES & CREDITS :

   NOAA